Time;durP1;ratioP1;P1;durP2;ratioP2;P2;SDS_P1;SDS_P2;PMS_P1;PMS_P2;Temp;Humidity;BMP_temperature;BMP_pressure;BME280_temperature;BME280_humidity;BME280_pressure;Samples;Min_cycle;Max_cycle;Signal;HPM_P1;HPM_P2
2021/11/12 00:14:00;;;;;;;27.73;20.83;;;;;;;3.17;100.00;96155.84;5088693;28;20093;-55
2021/11/12 00:16:27;;;;;;;36.40;24.58;;;;;;;3.11;100.00;96157.88;5089718;28;20043;-57
2021/11/12 00:18:52;;;;;;;21.65;17.92;;;;;;;3.09;100.00;96158.88;5089366;28;20059;-56
2021/11/12 00:21:19;;;;;;;24.58;18.33;;;;;;;3.17;100.00;96171.47;5084539;28;20035;-56
2021/11/12 00:23:44;;;;;;;20.50;17.83;;;;;;;3.19;100.00;96177.41;5088130;28;20027;-58
2021/11/12 00:26:11;;;;;;;22.17;17.73;;;;;;;3.19;100.00;96165.25;5088597;28;20384;-57
2021/11/12 00:28:48;;;;;;;17.27;15.45;;;;;;;3.14;100.00;96165.50;5086066;28;20024;-55
2021/11/12 00:34:48;;;;;;;18.65;14.60;;;;;;;3.19;100.00;96160.06;5051594;28;20069;-57
2021/11/12 00:37:47;;;;;;;16.17;14.38;;;;;;;3.21;100.00;96166.00;5045657;28;20061;-56
2021/11/12 00:40:20;;;;;;;18.45;15.60;;;;;;;3.23;100.00;96168.53;5071604;28;22579;-56
2021/11/12 00:43:36;;;;;;;16.40;13.82;;;;;;;3.21;100.00;96158.22;5069329;28;20479;-57
2021/11/12 00:45:36;;;;;;;18.65;14.52;;;;;;;3.19;100.00;96164.41;5050859;28;20112;-56
2021/11/12 00:50:55;;;;;;;20.58;14.68;;;;;;;3.14;100.00;96157.69;5069834;28;20075;-56
2021/11/12 00:55:45;;;;;;;23.25;18.42;;;;;;;3.03;100.00;96154.88;5069567;28;20032;-54
2021/11/12 00:58:14;;;;;;;25.50;18.90;;;;;;;3.04;100.00;96148.75;5047833;28;20782;-57
2021/11/12 01:00:40;;;;;;;22.30;17.42;;;;;;;3.09;100.00;96149.31;5068849;28;20033;-57
2021/11/12 01:03:06;;;;;;;25.73;19.20;;;;;;;3.10;100.00;96151.00;5068044;28;20040;-56
2021/11/12 01:05:32;;;;;;;25.20;19.10;;;;;;;3.08;100.00;96147.66;5068180;28;20506;-57
2021/11/12 01:08:00;;;;;;;23.23;18.05;;;;;;;3.06;100.00;96152.09;5070084;28;20063;-56
2021/11/12 01:10:26;;;;;;;25.10;17.85;;;;;;;3.05;100.00;96153.00;5065403;28;20625;-56
2021/11/12 01:12:52;;;;;;;23.55;19.02;;;;;;;3.00;100.00;96149.84;5066109;28;20111;-55
2021/11/12 01:15:19;;;;;;;20.77;17.13;;;;;;;2.98;100.00;96154.25;5068134;28;20099;-56
2021/11/12 01:17:45;;;;;;;19.45;16.08;;;;;;;2.99;100.00;96150.75;5069741;28;20519;-56
2021/11/12 01:20:14;;;;;;;21.25;17.42;;;;;;;2.99;100.00;96145.56;5066169;28;20025;-55
2021/11/12 01:22:39;;;;;;;24.83;16.73;;;;;;;2.94;100.00;96140.59;5067833;28;20055;-56
2021/11/12 01:25:10;;;;;;;22.92;17.63;;;;;;;2.93;100.00;96138.91;5068683;28;20021;-56
2021/11/12 01:27:36;;;;;;;19.40;16.25;;;;;;;2.94;100.00;96140.59;5068361;28;20554;-56
2021/11/12 01:30:02;;;;;;;18.63;15.55;;;;;;;2.93;100.00;96132.88;5068646;28;20038;-57
2021/11/12 01:32:27;;;;;;;22.88;18.45;;;;;;;2.89;100.00;96140.03;5069071;28;20064;-57
2021/11/12 01:34:57;;;;;;;21.92;18.55;;;;;;;2.90;100.00;96135.63;5065278;28;20056;-57
2021/11/12 01:37:25;;;;;;;21.15;17.70;;;;;;;2.91;100.00;96134.72;5068694;28;20082;-57
2021/11/12 01:39:55;;;;;;;20.75;17.48;;;;;;;2.88;100.00;96134.88;5067179;28;20575;-57
2021/11/12 01:42:22;;;;;;;21.75;16.70;;;;;;;2.86;100.00;96128.00;5064587;28;20499;-57
2021/11/12 01:44:53;;;;;;;18.90;16.17;;;;;;;2.90;100.00;96126.09;5063499;28;20047;-57
2021/11/12 01:49:56;;;;;;;18.23;16.08;;;;;;;2.96;100.00;96135.28;5068168;28;20487;-58
2021/11/12 01:52:41;;;;;;;22.52;15.02;;;;;;;2.92;100.00;96134.66;5067679;28;20040;-57
2021/11/12 01:55:27;;;;;;;18.50;15.38;;;;;;;2.97;100.00;96123.97;5067258;28;20426;-57
2021/11/12 02:00:26;;;;;;;16.30;14.30;;;;;;;3.03;100.00;96141.00;5065275;28;20113;-57
2021/11/12 02:02:52;;;;;;;20.13;14.57;;;;;;;2.98;100.00;96141.25;5068306;28;20086;-56
2021/11/12 02:05:18;;;;;;;21.08;14.80;;;;;;;3.01;100.00;96141.09;5069429;28;20032;-56
2021/11/12 02:07:44;;;;;;;18.45;13.63;;;;;;;2.99;100.00;96132.56;5061294;28;20032;-58
2021/11/12 02:10:18;;;;;;;15.70;13.93;;;;;;;2.96;100.00;96137.91;5068782;28;20040;-57
2021/11/12 02:15:12;;;;;;;16.05;14.15;;;;;;;2.98;100.00;96130.84;5067419;28;20422;-54
2021/11/12 02:17:41;;;;;;;19.42;14.73;;;;;;;2.97;100.00;96130.03;5068755;28;20036;-55
2021/11/12 02:20:13;;;;;;;18.88;14.27;;;;;;;2.95;100.00;96121.47;5068715;28;20028;-55
2021/11/12 02:22:40;;;;;;;17.25;13.75;;;;;;;2.97;100.00;96118.75;5067680;28;20256;-57
2021/11/12 02:25:10;;;;;;;17.77;14.77;;;;;;;3.01;100.00;96112.50;5068303;28;20071;-55
2021/11/12 02:27:49;;;;;;;17.67;14.45;;;;;;;3.04;100.00;96108.88;5063824;28;20024;-55
2021/11/12 02:30:22;;;;;;;19.67;13.13;;;;;;;3.01;100.00;96108.13;5063743;28;20036;-55
2021/11/12 02:33:00;;;;;;;16.00;13.73;;;;;;;3.03;100.00;96108.03;5068095;28;20033;-57
2021/11/12 02:35:26;;;;;;;16.15;13.82;;;;;;;3.09;100.00;96099.03;5069029;28;20072;-53
2021/11/12 02:37:52;;;;;;;16.52;14.20;;;;;;;3.14;100.00;96099.63;5067827;28;20050;-56
2021/11/12 02:40:18;;;;;;;21.25;13.30;;;;;;;3.12;100.00;96104.91;5069098;28;20502;-56
2021/11/12 02:42:43;;;;;;;15.65;13.68;;;;;;;3.11;100.00;96098.03;5086495;28;20031;-53
2021/11/12 02:45:09;;;;;;;14.88;13.35;;;;;;;3.12;100.00;96091.91;5088405;28;20475;-55
2021/11/12 02:47:34;;;;;;;14.60;12.43;;;;;;;3.12;100.00;96091.91;5087924;28;20051;-56
2021/11/12 02:50:00;;;;;;;16.25;12.95;;;;;;;3.09;100.00;96086.88;5084545;28;20514;-58
2021/11/12 02:52:25;;;;;;;14.90;13.30;;;;;;;3.09;100.00;96088.63;5083077;28;20517;-56
2021/11/12 02:54:52;;;;;;;17.70;13.00;;;;;;;3.09;100.00;96083.41;5082909;28;20032;-57
2021/11/12 02:57:20;;;;;;;18.42;13.27;;;;;;;3.06;100.00;96084.44;5087314;28;20046;-58
2021/11/12 02:59:47;;;;;;;17.35;13.13;;;;;;;3.03;100.00;96083.78;5086292;28;20043;-58
2021/11/12 03:02:12;;;;;;;16.40;12.25;;;;;;;3.05;100.00;96076.72;5084510;28;20082;-57
2021/11/12 03:04:37;;;;;;;19.35;12.88;;;;;;;3.02;100.00;96069.94;5086626;28;20032;-56
2021/11/12 03:07:03;;;;;;;15.93;12.75;;;;;;;3.01;100.00;96071.69;5082939;28;20487;-56
2021/11/12 03:09:30;;;;;;;14.55;12.30;;;;;;;3.04;100.00;96073.28;5086357;28;20086;-56
2021/11/12 03:11:58;;;;;;;14.63;13.07;;;;;;;3.04;100.00;96070.69;5080921;28;20091;-57
2021/11/12 03:14:24;;;;;;;16.73;12.80;;;;;;;3.00;100.00;96077.81;5086264;28;20036;-57
2021/11/12 03:16:50;;;;;;;14.02;12.10;;;;;;;2.92;100.00;96073.97;5083705;28;20051;-58
2021/11/12 03:19:17;;;;;;;15.60;12.30;;;;;;;2.94;100.00;96072.13;5086036;28;20043;-57
2021/11/12 03:21:43;;;;;;;14.15;12.30;;;;;;;2.95;100.00;96073.78;5087175;28;20032;-56
2021/11/12 03:24:16;;;;;;;16.17;12.65;;;;;;;2.98;100.00;96073.63;5087766;28;20089;-56
2021/11/12 03:26:49;;;;;;;13.95;12.50;;;;;;;3.04;100.00;96069.84;5089991;28;20020;-56
2021/11/12 04:04:45;;;;;;;13.60;12.30;;;;;;;3.03;100.00;96063.81;5087669;28;20038;-57
2021/11/12 05:55:09;;;;;;;18.75;14.63;;;;;;;2.85;100.00;96053.50;5086192;28;20031;-58
2021/11/12 05:57:38;;;;;;;17.38;14.07;;;;;;;2.88;100.00;96049.06;5084236;28;20068;-58
2021/11/12 06:00:08;;;;;;;14.77;13.38;;;;;;;2.87;100.00;96053.41;5088276;28;20024;-58
2021/11/12 06:02:33;;;;;;;20.60;14.65;;;;;;;2.86;100.00;96056.94;5088111;28;20066;-57
2021/11/12 06:04:59;;;;;;;14.70;13.23;;;;;;;2.85;100.00;96063.06;5085965;28;20020;-58
2021/11/12 06:07:25;;;;;;;16.27;13.60;;;;;;;2.89;100.00;96068.94;5088459;28;20067;-58
2021/11/12 06:09:50;;;;;;;14.52;13.02;;;;;;;2.88;100.00;96070.72;5087900;28;20028;-60
2021/11/12 06:12:16;;;;;;;13.18;11.35;;;;;;;2.85;100.00;96058.72;5087501;28;20035;-58
2021/11/12 06:14:41;;;;;;;12.10;10.90;;;;;;;2.89;100.00;96064.59;5086316;28;20027;-60
2021/11/12 06:17:07;;;;;;;13.57;10.45;;;;;;;2.89;100.00;96062.00;5086556;28;20438;-58
2021/11/12 06:19:32;;;;;;;15.13;11.38;;;;;;;2.89;100.00;96066.34;5088062;28;20479;-59
2021/11/12 06:21:58;;;;;;;12.65;11.35;;;;;;;2.86;100.00;96062.13;5085156;28;20058;-58
2021/11/12 06:24:24;;;;;;;12.02;10.93;;;;;;;2.85;100.00;96063.06;5085590;28;20111;-61
2021/11/12 06:26:49;;;;;;;16.98;11.30;;;;;;;2.85;100.00;96066.50;5070306;28;20060;-57
2021/11/12 06:29:15;;;;;;;13.63;11.60;;;;;;;2.89;100.00;96061.13;5087157;28;20403;-58
2021/11/12 06:31:40;;;;;;;25.58;20.60;;;;;;;2.99;100.00;96057.13;5086516;28;20407;-56
2021/11/12 06:34:06;;;;;;;43.60;34.38;;;;;;;2.92;100.00;96063.56;5086983;28;20085;-57
2021/11/12 06:36:32;;;;;;;37.70;27.40;;;;;;;2.83;100.00;96057.97;5084567;28;20047;-60
2021/11/12 06:38:58;;;;;;;32.88;24.02;;;;;;;2.86;100.00;96060.38;5086668;28;20032;-56
2021/11/12 06:42:11;;;;;;;28.83;20.48;;;;;;;2.86;100.00;96060.38;5084163;28;20048;-60
2021/11/12 06:49:34;;;;;;;17.27;15.47;;;;;;;2.85;100.00;96065.66;5085008;28;20070;-62
2021/11/12 06:52:00;;;;;;;17.45;15.02;;;;;;;2.86;100.00;96070.78;5081684;28;20458;-63
2021/11/12 06:54:27;;;;;;;18.40;16.38;;;;;;;2.88;100.00;96067.25;5085445;28;20044;-62
2021/11/12 06:56:52;;;;;;;18.23;14.75;;;;;;;2.89;100.00;96062.00;5086086;28;20036;-63
2021/11/12 06:59:17;;;;;;;15.65;14.10;;;;;;;2.90;100.00;96062.81;5088788;28;20410;-62
2021/11/12 07:01:43;;;;;;;15.15;13.55;;;;;;;2.90;100.00;96050.66;5090123;28;20032;-62
2021/11/12 07:04:09;;;;;;;14.73;12.15;;;;;;;2.94;100.00;96059.09;5090168;28;20036;-61
2021/11/12 07:06:36;;;;;;;17.67;14.60;;;;;;;2.98;100.00;96064.06;5091985;28;20097;-61
2021/11/12 07:09:05;;;;;;;24.08;15.48;;;;;;;3.03;100.00;96061.22;5084892;28;20033;-61
2021/11/12 07:11:30;;;;;;;18.05;16.15;;;;;;;3.07;100.00;96062.72;5085920;28;20032;-60
2021/11/12 07:13:56;;;;;;;17.77;15.07;;;;;;;3.08;100.00;96067.00;5089912;28;20475;-61
2021/11/12 07:16:22;;;;;;;18.60;15.07;;;;;;;3.13;100.00;96064.97;5091193;28;20064;-61
2021/11/12 07:18:48;;;;;;;19.73;14.70;;;;;;;3.18;100.00;96064.72;5071983;28;20036;-61
2021/11/12 07:21:14;;;;;;;15.52;13.85;;;;;;;3.23;100.00;96067.06;5087720;28;20213;-61
2021/11/12 07:23:40;;;;;;;17.17;13.43;;;;;;;3.28;100.00;96071.06;5089885;28;20032;-61
2021/11/12 07:26:05;;;;;;;20.77;13.23;;;;;;;3.32;100.00;96073.50;5087966;28;20024;-61
2021/11/12 07:28:31;;;;;;;15.25;13.68;;;;;;;3.37;100.00;96069.69;5087882;28;20655;-61
2021/11/12 07:30:56;;;;;;;17.85;14.93;;;;;;;3.43;100.00;96073.72;5088261;28;20028;-61
2021/11/12 07:33:23;;;;;;;22.88;15.77;;;;;;;3.48;100.00;96069.06;5088865;28;20028;-61
2021/11/12 07:35:52;;;;;;;17.95;15.02;;;;;;;3.53;100.00;96071.41;5089246;28;20027;-61
2021/11/12 07:38:25;;;;;;;20.50;16.70;;;;;;;3.58;100.00;96078.03;5091036;28;20043;-61
2021/11/12 07:46:10;;;;;;;19.73;17.65;;;;;;;3.66;100.00;96075.00;5069112;28;20415;-61
2021/11/12 07:48:35;;;;;;;25.15;18.00;;;;;;;3.72;100.00;96068.56;5068130;28;20032;-60
2021/11/12 07:51:01;;;;;;;18.52;16.73;;;;;;;3.78;100.00;96070.81;5071020;28;20115;-61
2021/11/12 07:53:26;;;;;;;15.48;13.88;;;;;;;3.84;100.00;96074.81;5067403;28;20375;-61
2021/11/12 07:55:55;;;;;;;16.73;14.57;;;;;;;3.89;100.00;96075.41;5069761;28;20090;-60
2021/11/12 07:58:21;;;;;;;17.65;15.55;;;;;;;3.91;100.00;96068.31;5069911;28;20052;-61
2021/11/12 08:00:47;;;;;;;16.70;14.27;;;;;;;3.93;100.00;96071.69;5068733;28;20052;-61
2021/11/12 08:03:14;;;;;;;16.98;15.32;;;;;;;3.99;100.00;96063.47;5067725;28;20060;-61
2021/11/12 08:05:42;;;;;;;16.02;13.52;;;;;;;4.03;100.00;96071.97;5070430;28;20499;-61
2021/11/12 08:08:11;;;;;;;16.27;14.57;;;;;;;4.08;100.00;96071.66;5066011;28;20489;-61
2021/11/12 08:10:47;;;;;;;15.75;14.15;;;;;;;4.18;100.00;96080.63;5068894;28;20036;-61
2021/11/12 08:13:20;;;;;;;16.45;14.13;;;;;;;4.23;100.00;96077.75;5070112;28;20025;-61
2021/11/12 08:15:58;;;;;;;19.45;14.00;;;;;;;4.30;100.00;96074.66;5065967;28;20144;-61
2021/11/12 08:18:40;;;;;;;17.35;15.63;;;;;;;4.41;100.00;96068.78;5071164;28;20466;-61
2021/11/12 08:21:14;;;;;;;18.42;14.02;;;;;;;4.55;100.00;96067.09;5066596;28;20079;-61
2021/11/12 08:29:10;;;;;;;22.13;16.33;;;;;;;4.83;100.00;96063.59;5067721;28;20028;-61
2021/11/12 08:42:05;;;;;;;19.55;15.85;;;;;;;5.16;100.00;96043.25;5081763;28;20036;-61
2021/11/12 08:47:27;;;;;;;24.25;15.05;;;;;;;5.29;100.00;96038.88;5089038;28;20098;-61
2021/11/12 08:49:53;;;;;;;17.75;13.82;;;;;;;5.35;100.00;96027.22;5089226;28;20035;-61
2021/11/12 08:52:19;;;;;;;21.83;15.40;;;;;;;5.46;100.00;96018.66;5089115;28;20028;-61
2021/11/12 08:54:47;;;;;;;19.23;15.65;;;;;;;5.51;100.00;96013.97;5088909;28;20518;-61
2021/11/12 08:57:15;;;;;;;19.00;13.88;;;;;;;5.60;100.00;96007.28;5087972;28;20032;-61
2021/11/12 08:59:43;;;;;;;21.20;15.93;;;;;;;5.63;100.00;95996.63;5088328;28;20422;-61
2021/11/12 09:02:11;;;;;;;16.58;13.73;;;;;;;5.68;100.00;96002.41;5089349;28;20032;-61
2021/11/12 09:04:38;;;;;;;16.92;15.20;;;;;;;5.70;100.00;96005.75;5087801;28;20032;-61
2021/11/12 09:07:04;;;;;;;20.13;17.85;;;;;;;5.85;100.00;96013.47;5083157;28;20032;-61
2021/11/12 09:09:30;;;;;;;21.80;17.17;;;;;;;5.74;100.00;96017.66;5084475;28;20040;-61
2021/11/12 09:11:55;;;;;;;22.27;19.98;;;;;;;5.71;100.00;96024.84;5085920;28;20036;-61
2021/11/12 09:14:24;;;;;;;29.95;21.00;;;;;;;5.65;100.00;96020.91;5087886;28;20040;-61
2021/11/12 09:16:50;;;;;;;24.25;19.88;;;;;;;5.57;100.00;96028.41;5085572;28;20116;-61
2021/11/12 09:19:16;;;;;;;22.70;20.27;;;;;;;5.55;100.00;96019.84;5077513;28;20463;-61
2021/11/12 09:21:43;;;;;;;24.80;19.38;;;;;;;5.54;100.00;96019.00;5087291;28;20028;-61
2021/11/12 09:24:10;;;;;;;22.15;19.73;;;;;;;5.76;100.00;96020.19;5082723;28;20046;-61
2021/11/12 09:26:36;;;;;;;27.42;20.60;;;;;;;5.95;100.00;96013.66;5089384;28;20027;-61
2021/11/12 09:29:08;;;;;;;22.08;19.08;;;;;;;6.13;100.00;96014.22;5088191;28;20062;-61
2021/11/12 09:31:33;;;;;;;23.08;20.27;;;;;;;6.25;100.00;96013.34;5088212;28;20030;-61
2021/11/12 09:34:01;;;;;;;22.75;20.35;;;;;;;6.23;100.00;96010.00;5088966;28;20028;-61
2021/11/12 09:36:26;;;;;;;23.90;20.98;;;;;;;6.17;100.00;96005.22;5086980;28;20114;-61
2021/11/12 09:38:52;;;;;;;38.78;30.55;;;;;;;6.10;100.00;95998.75;5089360;28;20709;-61
2021/11/12 09:41:17;;;;;;;48.78;36.03;;;;;;;6.16;100.00;96009.59;5070263;28;20114;-61
2021/11/12 09:43:43;;;;;;;56.35;41.28;;;;;;;6.23;100.00;96009.19;5088543;28;20036;-61
2021/11/12 09:46:12;;;;;;;43.95;31.92;;;;;;;6.22;100.00;96002.28;5086835;28;20078;-61
2021/11/12 09:48:39;;;;;;;27.23;24.33;;;;;;;6.24;100.00;96000.41;5066167;28;20127;-61
2021/11/12 09:51:05;;;;;;;35.72;30.05;;;;;;;6.21;98.81;95995.41;5088790;28;20119;-61
2021/11/12 09:53:31;;;;;;;26.52;23.80;;;;;;;6.23;98.17;95996.13;5068979;28;20492;-61
2021/11/12 09:55:56;;;;;;;26.77;23.98;;;;;;;6.30;98.02;95997.34;5083431;28;20047;-61
2021/11/12 09:58:22;;;;;;;33.20;25.48;;;;;;;6.38;98.31;95991.59;5083184;28;20020;-61
2021/11/12 10:00:54;;;;;;;26.80;24.00;;;;;;;6.54;98.49;95986.09;5086546;28;20103;-61
2021/11/12 10:03:21;;;;;;;28.10;25.20;;;;;;;6.74;98.18;95984.66;5087312;28;20552;-61
2021/11/12 10:05:48;;;;;;;29.52;25.52;;;;;;;6.88;97.30;95979.25;5084426;28;20427;-61
2021/11/12 10:08:27;;;;;;;27.75;24.83;;;;;;;7.01;96.50;95975.75;5088679;28;20036;-61
2021/11/12 10:11:01;;;;;;;28.27;24.88;;;;;;;7.05;96.36;95981.59;5085007;28;20135;-61
2021/11/12 10:13:38;;;;;;;29.33;23.52;;;;;;;7.11;95.28;95975.91;5079475;28;20074;-61
2021/11/12 10:19:02;;;;;;;32.60;24.20;;;;;;;7.14;92.58;95981.75;5085807;28;20054;-61
2021/11/12 10:21:40;;;;;;;35.15;24.45;;;;;;;7.12;93.06;95974.97;5084085;28;20040;-61
2021/11/12 10:24:22;;;;;;;27.85;24.90;;;;;;;7.02;92.97;95964.34;5085329;28;20510;-61
2021/11/12 10:26:53;;;;;;;31.83;24.38;;;;;;;7.11;94.04;95966.25;5087335;28;20036;-61
2021/11/12 10:29:25;;;;;;;25.20;22.52;;;;;;;7.25;93.76;95961.78;5083815;28;20250;-61
2021/11/12 10:32:00;;;;;;;27.58;24.67;;;;;;;7.33;93.92;95958.59;5087708;28;20032;-61
2021/11/12 10:34:29;;;;;;;29.52;24.58;;;;;;;7.33;92.11;95954.19;5082189;28;20024;-61
2021/11/12 10:36:59;;;;;;;29.33;24.13;;;;;;;7.77;91.08;95959.63;5087107;28;20149;-61
2021/11/12 10:39:29;;;;;;;27.17;22.98;;;;;;;7.72;91.16;95959.13;5085098;28;20070;-62
2021/11/12 10:41:58;;;;;;;27.23;23.70;;;;;;;7.42;91.94;95965.75;5082889;28;20038;-61
2021/11/12 10:44:24;;;;;;;29.08;25.90;;;;;;;7.16;90.63;95963.31;5087205;28;20055;-61
2021/11/12 10:46:49;;;;;;;33.47;24.15;;;;;;;7.37;89.61;95962.66;5089832;28;20081;-61
2021/11/12 10:49:33;;;;;;;28.90;24.30;;;;;;;7.15;91.05;95964.25;5082577;28;20500;-61
2021/11/12 10:52:07;;;;;;;28.58;25.40;;;;;;;6.60;93.92;95959.47;5085560;28;20043;-61
2021/11/12 10:55:01;;;;;;;37.33;24.70;;;;;;;6.81;92.07;95957.09;5087106;28;20040;-60
2021/11/12 10:57:33;;;;;;;54.15;27.23;;;;;;;6.22;94.47;95955.22;5077502;28;20143;-61
2021/11/12 11:00:08;;;;;;;44.75;26.75;;;;;;;6.23;94.46;95965.56;5087579;28;20028;-61
2021/11/12 11:02:41;;;;;;;56.47;29.30;;;;;;;5.85;96.25;95964.66;5088402;28;20035;-61
2021/11/12 11:05:15;;;;;;;36.70;27.77;;;;;;;5.61;98.85;95956.72;5088123;28;20067;-61
2021/11/12 11:07:45;;;;;;;35.80;28.33;;;;;;;5.91;97.49;95952.09;5087065;28;20064;-61
2021/11/12 11:10:22;;;;;;;37.58;27.70;;;;;;;5.70;98.26;95945.66;5098021;28;20111;-61
2021/11/12 11:12:48;;;;;;;35.10;28.10;;;;;;;5.70;98.71;95940.44;5085723;28;20040;-61
2021/11/12 11:15:23;;;;;;;31.83;26.60;;;;;;;6.02;97.28;95933.94;5079410;28;20040;-61
2021/11/12 11:18:02;;;;;;;42.08;28.48;;;;;;;5.88;97.59;95934.88;5084930;28;20028;-61
2021/11/12 11:20:30;;;;;;;38.65;29.33;;;;;;;5.71;99.05;95942.09;5084546;28;20036;-61
2021/11/12 11:22:59;;;;;;;39.50;29.35;;;;;;;5.80;98.09;95938.03;5081839;28;20028;-61
2021/11/12 11:25:26;;;;;;;33.97;28.95;;;;;;;5.78;97.93;95942.53;5080175;28;20039;-61
2021/11/12 11:27:54;;;;;;;34.92;28.02;;;;;;;5.93;97.76;95939.75;5085750;28;20070;-61
2021/11/12 11:30:20;;;;;;;34.50;28.67;;;;;;;5.72;97.57;95935.94;5083526;28;20032;-61
2021/11/12 11:32:46;;;;;;;34.05;28.55;;;;;;;5.89;97.62;95939.16;5085799;28;20040;-61
2021/11/12 11:35:13;;;;;;;38.78;30.70;;;;;;;6.15;96.68;95934.72;5085796;28;20039;-61
2021/11/12 11:37:40;;;;;;;36.60;30.05;;;;;;;5.88;97.78;95940.09;5084076;28;20027;-61
2021/11/12 11:40:10;;;;;;;34.22;29.20;;;;;;;6.09;97.01;95934.34;5083106;28;20056;-61
2021/11/12 11:42:37;;;;;;;34.25;28.92;;;;;;;5.86;97.49;95936.78;5085189;28;20036;-60
2021/11/12 11:45:03;;;;;;;37.05;29.98;;;;;;;5.58;99.26;95925.59;5072741;28;20028;-61
2021/11/12 11:47:30;;;;;;;37.55;30.10;;;;;;;5.58;100.00;95936.03;5089824;28;20044;-61
2021/11/12 11:49:56;;;;;;;35.30;30.08;;;;;;;5.84;99.24;95928.19;5090982;28;20114;-61
2021/11/12 11:52:30;;;;;;;37.83;30.83;;;;;;;5.88;99.15;95922.63;5090980;28;20040;-61
2021/11/12 11:54:56;;;;;;;36.15;30.80;;;;;;;5.98;99.73;95932.47;5091274;28;20036;-61
2021/11/12 11:57:24;;;;;;;35.88;29.67;;;;;;;6.12;98.62;95929.72;5089208;28;20040;-61
2021/11/12 12:00:21;;;;;;;34.80;31.02;;;;;;;6.07;98.09;95930.97;5089513;28;20411;-61
2021/11/12 12:02:47;;;;;;;34.45;28.92;;;;;;;6.22;98.39;95922.06;5085583;28;20032;-61
2021/11/12 12:05:14;;;;;;;35.15;31.45;;;;;;;6.53;96.11;95922.50;5090725;28;20020;-61
2021/11/12 12:07:44;;;;;;;33.83;29.73;;;;;;;6.49;96.39;95913.19;5091538;28;20499;-61
2021/11/12 12:10:24;;;;;;;37.47;29.10;;;;;;;6.40;97.54;95911.25;5089531;28;20027;-61
2021/11/12 12:12:53;;;;;;;33.83;30.05;;;;;;;6.49;97.09;95910.56;5091112;28;20414;-61
2021/11/12 12:15:21;;;;;;;37.25;30.80;;;;;;;6.60;97.01;95917.63;5089410;28;20040;-61
2021/11/12 12:18:09;;;;;;;39.97;29.75;;;;;;;6.73;96.94;95917.56;5088619;28;20031;-61
2021/11/12 12:21:06;;;;;;;33.88;28.83;;;;;;;6.82;95.69;95914.28;5082733;28;20125;-61
2021/11/12 13:18:34;;;;;;;30.77;27.45;;;;;;;7.69;90.73;95891.22;5088499;28;20097;-61
2021/11/12 13:23:12;;;;;;;34.58;28.45;;;;;;;10.42;79.22;95881.13;5087409;28;20512;-61
2021/11/12 13:25:43;;;;;;;35.38;28.50;;;;;;;10.25;79.53;95874.72;5083807;28;20518;-61
2021/11/12 13:28:27;;;;;;;29.40;25.15;;;;;;;10.29;75.63;95874.31;5078582;28;20028;-61
2021/11/12 13:31:00;;;;;;;29.63;23.70;;;;;;;10.39;77.87;95873.47;5088813;28;20040;-61
2021/11/12 13:33:40;;;;;;;32.72;26.15;;;;;;;10.37;76.47;95867.53;5083507;28;20036;-61
2021/11/12 13:36:23;;;;;;;29.40;25.10;;;;;;;10.60;78.13;95861.06;5087209;28;20024;-61
2021/11/12 13:38:58;;;;;;;31.50;24.90;;;;;;;11.10;76.61;95864.50;5083078;28;20039;-61
2021/11/12 13:41:35;;;;;;;32.72;26.80;;;;;;;11.13;74.88;95863.41;5074788;28;20498;-62
2021/11/12 13:44:08;;;;;;;28.63;25.45;;;;;;;11.03;73.51;95858.16;5088499;28;20476;-61
2021/11/12 13:46:49;;;;;;;30.05;25.60;;;;;;;10.80;73.34;95858.44;5087825;28;20032;-61
2021/11/12 13:49:25;;;;;;;32.05;27.10;;;;;;;11.18;73.72;95855.91;5088931;28;20023;-61
2021/11/12 13:51:51;;;;;;;32.15;26.67;;;;;;;11.28;72.97;95854.09;5092623;28;20036;-61
2021/11/12 13:54:16;;;;;;;35.45;23.58;;;;;;;11.58;70.00;95856.63;5088057;28;20039;-61
2021/11/12 13:56:42;;;;;;;30.80;24.50;;;;;;;11.41;69.84;95866.09;5087806;28;20379;-61
2021/11/12 13:59:10;;;;;;;31.90;26.52;;;;;;;11.03;70.60;95864.22;5088738;28;20028;-61
2021/11/12 14:01:37;;;;;;;38.22;27.85;;;;;;;10.72;71.88;95868.81;5085831;28;20039;-61
2021/11/12 14:04:02;;;;;;;32.33;26.63;;;;;;;10.70;72.66;95865.50;5084162;28;20411;-62
2021/11/12 14:06:37;;;;;;;31.85;27.60;;;;;;;10.70;72.81;95863.72;5083563;28;20032;-61
2021/11/12 14:09:04;;;;;;;31.50;27.65;;;;;;;10.35;74.58;95869.47;5087630;28;20040;-61
2021/11/12 14:11:32;;;;;;;33.13;26.48;;;;;;;10.35;74.85;95859.75;5088156;28;20499;-61
2021/11/12 14:14:05;;;;;;;31.88;26.10;;;;;;;10.67;73.56;95860.50;5085316;28;20047;-61
2021/11/12 14:16:37;;;;;;;30.75;27.50;;;;;;;10.49;73.61;95858.56;5085906;28;20020;-61
2021/11/12 14:21:45;;;;;;;41.60;29.70;;;;;;;10.08;75.75;95853.34;5087331;28;20036;-61
2021/11/12 14:35:17;;;;;;;35.03;27.33;;;;;;;10.21;73.27;95863.63;5088103;28;20129;-61
2021/11/12 14:46:54;;;;;;;42.75;34.33;;;;;;;9.01;78.29;95860.59;5086641;28;20035;-61
2021/11/12 14:54:30;;;;;;;38.35;29.42;;;;;;;8.29;83.53;95859.44;5086845;28;20036;-61
2021/11/12 14:56:58;;;;;;;39.60;31.30;;;;;;;8.25;83.40;95863.28;5082613;28;20020;-61
2021/11/12 14:59:23;;;;;;;52.88;43.38;;;;;;;8.49;83.06;95864.88;5086520;28;20043;-61
2021/11/12 15:01:49;;;;;;;41.28;32.80;;;;;;;8.44;83.06;95867.88;5088371;28;20032;-61
2021/11/12 15:04:16;;;;;;;38.42;32.33;;;;;;;8.67;80.68;95866.03;5086830;28;20039;-61
2021/11/12 15:06:42;;;;;;;40.60;32.78;;;;;;;8.63;80.79;95879.53;5086253;28;20039;-61
2021/11/12 15:09:16;;;;;;;52.72;36.03;;;;;;;8.75;80.67;95878.53;5084561;28;20024;-61
2021/11/12 15:11:43;;;;;;;43.65;36.00;;;;;;;8.83;79.62;95876.09;5085403;28;20458;-61
2021/11/12 15:14:12;;;;;;;38.42;32.88;;;;;;;8.94;79.38;95882.25;5084556;28;20023;-61
2021/11/12 15:16:40;;;;;;;38.20;32.72;;;;;;;9.60;76.78;95881.13;5087786;28;20032;-61
2021/11/12 15:19:07;;;;;;;41.25;34.00;;;;;;;9.62;75.80;95886.25;5087476;28;20020;-61
2021/11/12 15:21:37;;;;;;;42.42;34.45;;;;;;;8.58;79.49;95888.63;5089553;28;20503;-61
2021/11/12 15:26:53;;;;;;;43.22;36.13;;;;;;;6.96;87.92;95889.69;5091848;28;20040;-61
2021/11/12 15:29:24;;;;;;;46.13;36.75;;;;;;;6.48;91.20;95884.53;5089581;28;20054;-61
2021/11/12 15:34:20;;;;;;;49.28;38.13;;;;;;;6.18;93.72;95878.78;5083363;28;20040;-61
2021/11/12 15:39:31;;;;;;;48.20;37.25;;;;;;;6.16;94.22;95872.84;5090155;28;20495;-61
2021/11/12 15:44:34;;;;;;;45.33;36.58;;;;;;;6.22;93.21;95877.63;5087784;28;20033;-61
2021/11/12 15:47:34;;;;;;;47.83;36.17;;;;;;;6.20;93.08;95878.69;5075062;28;20474;-61
2021/11/12 15:49:59;;;;;;;46.05;34.70;;;;;;;6.18;92.99;95876.16;5086321;28;20032;-60
2021/11/12 15:52:35;;;;;;;43.15;37.55;;;;;;;6.16;93.07;95878.06;5084915;28;20036;-60
2021/11/12 15:55:10;;;;;;;40.92;34.42;;;;;;;6.05;93.78;95878.84;5091507;28;20028;-60
2021/11/12 16:00:12;;;;;;;50.35;38.13;;;;;;;5.94;94.60;95873.50;5087904;28;20039;-60
2021/11/12 16:08:01;;;;;;;65.50;49.70;;;;;;;5.79;95.60;95872.81;5089030;28;20086;-60
2021/11/12 16:15:40;;;;;;;66.40;50.10;;;;;;;5.69;95.51;95880.44;5083669;28;20070;-60
2021/11/12 16:18:33;;;;;;;72.57;50.28;;;;;;;5.59;95.55;95882.84;5090653;28;20028;-60
2021/11/12 16:26:08;;;;;;;62.47;45.47;;;;;;;5.34;96.34;95887.16;5085368;28;20039;-60
2021/11/12 16:28:49;;;;;;;63.10;46.50;;;;;;;5.29;96.34;95894.47;5089669;28;20035;-59
2021/11/12 16:31:14;;;;;;;60.22;45.72;;;;;;;5.24;97.22;95894.78;5081785;28;20032;-60
2021/11/12 16:33:39;;;;;;;62.55;45.15;;;;;;;5.24;97.19;95893.97;5089330;28;20058;-60
2021/11/12 16:36:07;;;;;;;51.33;40.20;;;;;;;5.27;96.98;95901.59;5089468;28;20032;-60
2021/11/12 16:38:34;;;;;;;49.65;39.75;;;;;;;5.27;97.34;95904.19;5089962;28;20024;-60
2021/11/12 16:51:21;;;;;;;57.10;45.55;;;;;;;5.03;98.55;95917.94;5070780;28;20039;-60
2021/11/12 17:07:14;;;;;;;88.80;62.00;;;;;;;4.48;100.00;95941.47;5063665;28;20097;-62
2021/11/12 17:12:46;;;;;;;183.60;125.30;;;;;;;4.44;100.00;95964.31;5065540;28;20048;-62
2021/11/12 17:15:27;;;;;;;122.28;76.75;;;;;;;4.37;100.00;95964.78;5067718;28;20029;-61